Flight Track Log - Related Links

Times and Time Zones

All times are in EDT time to prevent confusion due to time zone crossing. See the EGF3773 flight status page for this flight to view local times or setup timezone preferences in your user account.


Time Position Orientation Groundspeed Altitude Reporting Facility
EDT Latitude Longitude Course Direction KTS MPH feet Rate Location/Type
Mon 08:18:09 PM 39.9333 -104.6500 85° East 195 224 7,300  Level Denver TRACON
Mon 08:19:00 PM 39.8667 -104.2075 90° East  Level FlightAware Approximate
Mon 08:20:00 PM 39.8667 -104.0542 90° East  Level FlightAware Approximate
Mon 08:20:03 PM 40.0333 -104.5667 33° Northeast 249 287 11,800  Level Denver TRACON
Mon 08:21:00 PM 39.8667 -103.9008 90° East  Level FlightAware Approximate
Mon 08:21:03 PM 40.0500 -104.4833 75° East 269 310 13,500  Level Denver TRACON
Mon 08:22:00 PM 39.8792 -103.7501 72° East  Level FlightAware Approximate
Mon 08:22:09 PM 40.0333 -104.3500 99° East 334 384 15,000  Level Denver TRACON
Mon 08:23:00 PM 39.8931 -103.5981 85° East  Level FlightAware Approximate
Mon 08:23:08 PM 40.0117 -104.2353 104° East 353 406 16,600  Level Denver Center
Mon 08:24:10 PM 39.9842 -104.1267 108° East 369 425 18,100 1,553 Climbing Denver Center
Mon 08:26:00 PM 40.0380 -103.8538 90° East  Level Estimated
Mon 08:26:25 PM 39.9061 -103.8247 90° East 401 461 21,700  Level Denver Center
Mon 08:28:29 PM 39.9114 -103.5017 89° East 425 489 24,600 1,290 Climbing Denver Center
Mon 08:29:31 PM 39.9322 -103.3164 82° East 439 505 25,700 968 Climbing Denver Center
Mon 08:30:33 PM 39.9497 -103.1483 82° East 459 528 26,600 968 Climbing Denver Center
Mon 08:31:35 PM 39.9686 -102.9783 82° East 469 540 27,700 1,122 Climbing Denver Center
Mon 08:32:36 PM 39.9875 -102.8097 82° East 467 537 28,900 1,024 Climbing Denver Center
Mon 08:33:38 PM 40.0056 -102.6381 82° East 470 541 29,800 823 Climbing Denver Center
Mon 08:34:40 PM 40.0228 -102.4753 82° East 473 544 30,600 823 Climbing Denver Center
Mon 08:35:42 PM 40.0419 -102.2833 83° East 480 552 31,500 878 Climbing Denver Center
Mon 08:36:43 PM 40.0592 -102.1183 82° East 480 552 32,400 927 Climbing Denver Center
Mon 08:37:45 PM 40.0783 -101.9267 82° East 478 550 33,400 871 Climbing Denver Center
Mon 08:38:47 PM 40.0956 -101.7619 82° East 480 552 34,200 823 Climbing Denver Center
Mon 08:39:49 PM 40.1128 -101.5697 83° East 479 551 35,100 829 Climbing Denver Center
Mon 08:40:50 PM 40.1236 -101.4042 85° East 479 551 35,900 579 Climbing Denver Center
Mon 08:42:00 PM 40.1299 -101.2244 87° East  Level FlightAware Approximate
Mon 08:43:06 PM 40.1372 -101.0525 87° East 468 539 37,000  Level Denver Center
Mon 08:44:08 PM 40.1444 -100.8364 87° East 467 537 37,000  Level Denver Center
Mon 08:45:10 PM 40.1497 -100.6733 88° East 472 543 37,000  Level Denver Center
Mon 08:46:12 PM 40.1564 -100.4817 87° East 477 549 37,000  Level Denver Center
Mon 08:47:13 PM 40.1614 -100.3150 88° East 481 554 37,000  Level Denver Center
Mon 08:48:27 PM 40.1669 -100.1211 88° East 481 554 37,000  Level Denver Center
Mon 08:49:29 PM 40.1728 -99.9242 88° East 486 559 37,000  Level Denver Center
Mon 08:51:25 PM 40.1808 -99.5836 88° East 487 560 37,000  Level Kansas City Center
Mon 08:52:34 PM 40.1858 -99.3706 88° East 492 566 37,000  Level Denver Center
Mon 08:54:29 PM 40.1933 -99.0133 88° East 492 566 37,000  Level Kansas City Center
Mon 08:55:39 PM 40.1964 -98.8353 89° East 494 568 37,000  Level Denver Center
Mon 08:56:41 PM 40.1997 -98.6206 89° East 497 572 37,000  Level Denver Center
Mon 08:57:43 PM 40.2022 -98.4422 89° East 494 568 37,000  Level Denver Center
Mon 08:58:37 PM 40.2031 -98.2983 90° East 497 572 37,000  Level Minneapolis Center
Mon 09:00:00 PM 40.2051 -98.0839 89° East  Level FlightAware Approximate
Mon 09:00:41 PM 40.2081 -97.9019 89° East 498 573 37,000  Level Minneapolis Center
Mon 09:01:43 PM 40.2094 -97.7211 89° East 499 574 37,000  Level Minneapolis Center
Mon 09:02:45 PM 40.2097 -97.5400 90° East 499 574 37,000  Level Minneapolis Center
Mon 09:03:47 PM 40.2114 -97.3597 89° East 497 572 37,000  Level Minneapolis Center
Mon 09:04:49 PM 40.2111 -97.1533 90° East 499 574 37,000  Level Minneapolis Center
Mon 09:05:51 PM 40.2119 -96.9742 90° East 497 572 37,000  Level Minneapolis Center
Mon 09:07:55 PM 40.2114 -96.6125 90° East 498 573 37,000  Level Minneapolis Center
Mon 09:08:57 PM 40.2111 -96.4322 90° East 497 572 37,000  Level Minneapolis Center
Mon 09:09:59 PM 40.2108 -96.2508 90° East 500 575 37,000  Level Minneapolis Center
Mon 09:11:02 PM 40.2089 -96.0350 91° East 498 573 37,000  Level Minneapolis Center
Mon 09:12:03 PM 40.2083 -95.8525 90° East 502 578 37,000  Level Minneapolis Center
Mon 09:13:06 PM 40.2075 -95.6731 90° East 499 574 37,000  Level Minneapolis Center
Mon 09:14:08 PM 40.2053 -95.4953 91° East 493 567 37,000  Level Minneapolis Center
Mon 09:16:03 PM 40.2000 -95.1411 91° East 493 567 37,000  Level Kansas City Center
Mon 09:17:05 PM 40.1975 -94.9697 91° East 491 565 37,000  Level Kansas City Center
Mon 09:18:18 PM 40.1953 -94.7517 91° East 486 559 37,000  Level Minneapolis Center
Mon 09:19:20 PM 40.1919 -94.5775 91° East 483 556 37,000  Level Minneapolis Center
Mon 09:20:22 PM 40.1875 -94.3914 92° East 482 555 37,000  Level Minneapolis Center
Mon 09:21:23 PM 40.1833 -94.2181 92° East 482 555 37,000  Level Minneapolis Center
Mon 09:22:25 PM 40.1811 -94.0458 91° East 478 550 37,000  Level Minneapolis Center
Mon 09:23:14 PM 40.1744 -93.9061 94° East 481 554 37,000 -432 Level Kansas City Center
Mon 09:24:16 PM 40.1850 -93.7044 86° East 471 542 36,200 -878 Descending Kansas City Center
Mon 09:25:17 PM 40.2150 -93.5383 77° East 473 544 35,200 -585 Descending Kansas City Center
Mon 09:26:19 PM 40.2417 -93.3728 78° East 468 539 35,000 -65 Descending Kansas City Center
Mon 09:28:22 PM 40.3008 -93.0219 77° East 471 542 35,000  Level Kansas City Center
Mon 09:29:23 PM 40.3275 -92.8594 78° East 474 545 35,000  Level Kansas City Center
Mon 09:30:24 PM 40.3572 -92.6897 77° East 470 541 35,000  Level Kansas City Center
Mon 09:31:55 PM 40.3975 -92.4269 79° East 471 542 35,000 -316 Level Chicago Center
Mon 09:32:56 PM 40.4239 -92.2594 78° East 471 542 34,200 -894 Descending Chicago Center
Mon 09:33:29 PM 40.4383 -92.1636 79° East 462 532 33,600 -766 Descending Kansas City Center
Mon 09:34:30 PM 40.4625 -92.0050 79° East 451 519 33,000 -293 Descending Kansas City Center
Mon 09:35:32 PM 40.4872 -91.8417 79° East 456 525 33,000  Level Kansas City Center
Mon 09:36:33 PM 40.5117 -91.6744 79° East 466 536 33,000  Level Kansas City Center
Mon 09:37:02 PM 40.5233 -91.6072 77° East 471 542 33,000  Level Chicago Center
Mon 09:38:04 PM 40.5539 -91.4042 79° East 476 548 33,000  Level Chicago Center
Mon 09:39:05 PM 40.6017 -91.2642 66° East 473 544 33,000  Level Chicago Center
Mon 09:40:07 PM 40.6550 -91.1075 66° East 470 541 33,000 -49 Level Chicago Center
Mon 09:41:08 PM 40.7094 -90.9519 65° Northeast 468 539 32,900 -1,073 Descending Chicago Center
Mon 09:42:10 PM 40.7717 -90.7647 66° East 464 534 30,800 -2,098 Descending Chicago Center
Mon 09:43:11 PM 40.8244 -90.6097 66° East 463 533 28,600 -1,805 Descending Chicago Center
Mon 09:44:13 PM 40.8753 -90.4578 66° East 454 522 27,100 -1,415 Descending Chicago Center
Mon 09:45:14 PM 40.9267 -90.3058 66° East 451 519 25,700 -1,317 Descending Chicago Center
Mon 09:46:16 PM 40.9817 -90.1411 66° East 448 516 24,400 -829 Descending Chicago Center
Mon 09:47:17 PM 41.0264 -90.0069 66° East 436 502 24,000 -130 Descending Chicago Center
Mon 09:49:00 PM 41.1067 -89.7540 67° East  Level FlightAware Approximate
Mon 09:49:20 PM 41.1197 -89.7139 67° East 429 494 24,000  Level Chicago Center
Mon 09:50:22 PM 41.1672 -89.5706 66° East 424 488 23,400 -1,317 Descending Chicago Center
Mon 09:51:23 PM 41.2231 -89.4358 61° Northeast 417 480 21,300 -2,000 Descending Chicago Center
Mon 09:52:25 PM 41.2767 -89.3031 62° Northeast 411 473 19,300 -2,146 Descending Chicago Center
Mon 09:53:26 PM 41.3361 -89.1506 63° Northeast 390 449 16,900 -2,164 Descending Chicago Center
Mon 09:54:27 PM 41.3856 -89.0264 62° Northeast 381 438 14,900 -1,696 Descending Chicago Center
Mon 09:56:30 PM 41.4797 -88.7911 62° Northeast 362 417 11,700 -1,272 Descending Chicago Center
Mon 09:57:31 PM 41.5228 -88.6831 62° Northeast 340 391 11,000 -341 Descending Chicago Center
Mon 09:58:33 PM 41.5594 -88.5886 63° Northeast 289 333 11,000  Level Chicago Center
Mon 09:59:34 PM 41.5956 -88.4986 62° Northeast 276 318 11,000 -590 Level Chicago Center
Mon 10:00:35 PM 41.6261 -88.4050 66° East 274 315 9,800 -1,415 Descending Chicago Center
Mon 10:01:37 PM 41.6533 -88.3150 68° East 264 304 8,100 -927 Descending Chicago Center
Mon 10:02:38 PM 41.6861 -88.2114 67° East 253 291 7,900 -787 Descending Chicago Center
Mon 10:03:39 PM 41.7358 -88.1569 39° Northeast 227 261 6,500 -1,366 Descending Chicago Center
Mon 10:04:41 PM 41.7825 -88.1011 42° Northeast 227 261 5,100 -1,355 Descending Chicago Center

Login

Don't have an account? Register now (free) for customized features, flight alerts, and more!